sensor_id;sensor_type;location;lat;lon;timestamp;temperature;humidity
59999;DHT22;45859;51.378;6.736;2022-12-29T00:00:05;11.30;99.90
59999;DHT22;45859;51.378;6.736;2022-12-29T00:02:31;11.20;99.90
59999;DHT22;45859;51.378;6.736;2022-12-29T00:04:57;11.20;99.90
59999;DHT22;45859;51.378;6.736;2022-12-29T00:07:22;11.10;99.90
59999;DHT22;45859;51.378;6.736;2022-12-29T00:09:48;9.90;99.90
59999;DHT22;45859;51.378;6.736;2022-12-29T00:12:14;11.00;99.90
59999;DHT22;45859;51.378;6.736;2022-12-29T00:14:39;11.00;99.90
59999;DHT22;45859;51.378;6.736;2022-12-29T00:17:23;11.00;99.90
59999;DHT22;45859;51.378;6.736;2022-12-29T00:19:49;11.00;99.90
59999;DHT22;45859;51.378;6.736;2022-12-29T00:22:33;11.00;99.90
59999;DHT22;45859;51.378;6.736;2022-12-29T00:25:17;11.10;99.90
59999;DHT22;45859;51.378;6.736;2022-12-29T00:28:01;11.10;99.90
59999;DHT22;45859;51.378;6.736;2022-12-29T00:30:45;11.20;99.90
59999;DHT22;45859;51.378;6.736;2022-12-29T00:33:31;11.20;99.90
59999;DHT22;45859;51.378;6.736;2022-12-29T00:38:48;11.30;99.90
59999;DHT22;45859;51.378;6.736;2022-12-29T00:41:33;11.30;99.90
59999;DHT22;45859;51.378;6.736;2022-12-29T00:44:17;11.40;99.90
59999;DHT22;45859;51.378;6.736;2022-12-29T00:46:43;11.20;99.90
59999;DHT22;45859;51.378;6.736;2022-12-29T00:49:11;11.30;99.90
59999;DHT22;45859;51.378;6.736;2022-12-29T00:52:17;10.90;99.90
59999;DHT22;45859;51.378;6.736;2022-12-29T00:54:42;10.80;99.90
59999;DHT22;45859;51.378;6.736;2022-12-29T00:57:10;10.80;99.90
59999;DHT22;45859;51.378;6.736;2022-12-29T00:59:37;11.30;99.90
59999;DHT22;45859;51.378;6.736;2022-12-29T01:02:03;10.80;99.90
59999;DHT22;45859;51.378;6.736;2022-12-29T01:04:28;10.90;99.90
59999;DHT22;45859;51.378;6.736;2022-12-29T01:06:54;10.90;99.90
59999;DHT22;45859;51.378;6.736;2022-12-29T01:09:20;11.00;99.90
59999;DHT22;45859;51.378;6.736;2022-12-29T01:12:05;11.00;99.90
59999;DHT22;45859;51.378;6.736;2022-12-29T01:14:31;11.10;99.90
59999;DHT22;45859;51.378;6.736;2022-12-29T01:16:57;11.20;99.90
59999;DHT22;45859;51.378;6.736;2022-12-29T01:19:23;11.40;99.90
59999;DHT22;45859;51.378;6.736;2022-12-29T01:21:49;11.40;99.90
59999;DHT22;45859;51.378;6.736;2022-12-29T01:24:17;11.90;99.90
59999;DHT22;45859;51.378;6.736;2022-12-29T01:26:43;11.70;99.90
59999;DHT22;45859;51.378;6.736;2022-12-29T01:29:09;11.50;99.90
59999;DHT22;45859;51.378;6.736;2022-12-29T01:31:35;11.60;99.90
59999;DHT22;45859;51.378;6.736;2022-12-29T01:34:00;11.70;99.90
59999;DHT22;45859;51.378;6.736;2022-12-29T01:36:26;11.70;99.90
59999;DHT22;45859;51.378;6.736;2022-12-29T01:38:52;11.70;99.90
59999;DHT22;45859;51.378;6.736;2022-12-29T01:41:18;11.70;99.90
59999;DHT22;45859;51.378;6.736;2022-12-29T01:43:49;11.70;99.90
59999;DHT22;45859;51.378;6.736;2022-12-29T01:46:39;11.80;99.90
59999;DHT22;45859;51.378;6.736;2022-12-29T01:49:10;11.80;99.90
59999;DHT22;45859;51.378;6.736;2022-12-29T01:51:52;12.30;99.90
59999;DHT22;45859;51.378;6.736;2022-12-29T01:54:29;11.90;99.90
59999;DHT22;45859;51.378;6.736;2022-12-29T01:56:59;11.90;99.90
59999;DHT22;45859;51.378;6.736;2022-12-29T01:59:29;11.90;99.90
59999;DHT22;45859;51.378;6.736;2022-12-29T02:01:56;11.90;99.90
59999;DHT22;45859;51.378;6.736;2022-12-29T02:04:24;11.80;99.90
59999;DHT22;45859;51.378;6.736;2022-12-29T02:06:55;11.80;99.90
59999;DHT22;45859;51.378;6.736;2022-12-29T02:09:22;11.80;99.90
59999;DHT22;45859;51.378;6.736;2022-12-29T02:11:49;11.90;99.90
59999;DHT22;45859;51.378;6.736;2022-12-29T02:14:15;11.80;99.90
59999;DHT22;45859;51.378;6.736;2022-12-29T02:36:52;11.80;99.90
59999;DHT22;45859;51.378;6.736;2022-12-29T02:39:44;11.80;99.90
59999;DHT22;45859;51.378;6.736;2022-12-29T02:50:36;11.80;99.90
59999;DHT22;45859;51.378;6.736;2022-12-29T02:53:11;11.80;99.90
59999;DHT22;45859;51.378;6.736;2022-12-29T02:55:37;11.80;99.90
59999;DHT22;45859;51.378;6.736;2022-12-29T03:00:36;11.90;99.90
59999;DHT22;45859;51.378;6.736;2022-12-29T03:08:24;11.90;99.90
59999;DHT22;45859;51.378;6.736;2022-12-29T03:11:09;11.90;99.90
59999;DHT22;45859;51.378;6.736;2022-12-29T03:14:02;11.90;99.90
59999;DHT22;45859;51.378;6.736;2022-12-29T03:16:57;12.00;99.90
59999;DHT22;45859;51.378;6.736;2022-12-29T03:19:40;11.90;99.90
59999;DHT22;45859;51.378;6.736;2022-12-29T03:22:09;11.90;99.90
59999;DHT22;45859;51.378;6.736;2022-12-29T03:25:00;11.90;99.90
59999;DHT22;45859;51.378;6.736;2022-12-29T03:27:30;12.20;99.90
59999;DHT22;45859;51.378;6.736;2022-12-29T03:30:00;11.90;99.90
59999;DHT22;45859;51.378;6.736;2022-12-29T03:32:32;11.90;99.90
59999;DHT22;45859;51.378;6.736;2022-12-29T03:34:59;12.00;99.90
59999;DHT22;45859;51.378;6.736;2022-12-29T03:37:29;11.90;99.90
59999;DHT22;45859;51.378;6.736;2022-12-29T03:39:56;12.00;99.90
59999;DHT22;45859;51.378;6.736;2022-12-29T03:42:26;11.90;99.90
59999;DHT22;45859;51.378;6.736;2022-12-29T03:44:55;12.00;99.90
59999;DHT22;45859;51.378;6.736;2022-12-29T03:47:22;11.90;99.90
59999;DHT22;45859;51.378;6.736;2022-12-29T03:49:49;11.90;99.90
59999;DHT22;45859;51.378;6.736;2022-12-29T03:52:15;11.90;99.90
59999;DHT22;45859;51.378;6.736;2022-12-29T03:54:41;11.90;99.90
59999;DHT22;45859;51.378;6.736;2022-12-29T03:57:07;11.90;99.90
59999;DHT22;45859;51.378;6.736;2022-12-29T03:59:33;11.90;99.90
59999;DHT22;45859;51.378;6.736;2022-12-29T04:01:58;11.90;99.90
59999;DHT22;45859;51.378;6.736;2022-12-29T04:04:24;11.90;99.90
59999;DHT22;45859;51.378;6.736;2022-12-29T04:06:50;11.90;99.90
59999;DHT22;45859;51.378;6.736;2022-12-29T04:09:15;12.40;99.90
59999;DHT22;45859;51.378;6.736;2022-12-29T04:11:41;11.90;99.90
59999;DHT22;45859;51.378;6.736;2022-12-29T04:14:06;11.90;99.90
59999;DHT22;45859;51.378;6.736;2022-12-29T04:16:32;11.90;99.90
59999;DHT22;45859;51.378;6.736;2022-12-29T04:19:01;12.00;99.90
59999;DHT22;45859;51.378;6.736;2022-12-29T04:21:27;12.00;99.90
59999;DHT22;45859;51.378;6.736;2022-12-29T04:23:52;12.00;99.90
59999;DHT22;45859;51.378;6.736;2022-12-29T04:26:18;12.40;99.90
59999;DHT22;45859;51.378;6.736;2022-12-29T04:28:43;12.10;99.90
59999;DHT22;45859;51.378;6.736;2022-12-29T04:31:09;12.10;99.90
59999;DHT22;45859;51.378;6.736;2022-12-29T04:33:35;12.20;99.90
59999;DHT22;45859;51.378;6.736;2022-12-29T04:36:00;12.20;99.90
59999;DHT22;45859;51.378;6.736;2022-12-29T04:38:26;12.20;99.90
59999;DHT22;45859;51.378;6.736;2022-12-29T04:40:52;12.30;99.90
59999;DHT22;45859;51.378;6.736;2022-12-29T04:43:17;12.30;99.90
59999;DHT22;45859;51.378;6.736;2022-12-29T04:45:52;12.30;99.90
59999;DHT22;45859;51.378;6.736;2022-12-29T04:48:17;13.10;99.90
59999;DHT22;45859;51.378;6.736;2022-12-29T04:50:43;12.40;99.90
59999;DHT22;45859;51.378;6.736;2022-12-29T04:53:09;12.20;99.90
59999;DHT22;45859;51.378;6.736;2022-12-29T04:55:35;12.20;99.90
59999;DHT22;45859;51.378;6.736;2022-12-29T04:58:01;12.40;99.90
59999;DHT22;45859;51.378;6.736;2022-12-29T05:00:26;12.30;99.90
59999;DHT22;45859;51.378;6.736;2022-12-29T05:02:52;12.30;99.90
59999;DHT22;45859;51.378;6.736;2022-12-29T05:05:18;12.80;99.90
59999;DHT22;45859;51.378;6.736;2022-12-29T05:07:44;12.20;99.90
59999;DHT22;45859;51.378;6.736;2022-12-29T05:10:10;12.30;99.90
59999;DHT22;45859;51.378;6.736;2022-12-29T05:12:37;12.30;99.90
59999;DHT22;45859;51.378;6.736;2022-12-29T05:15:05;12.30;99.90
59999;DHT22;45859;51.378;6.736;2022-12-29T05:17:31;12.30;99.90
59999;DHT22;45859;51.378;6.736;2022-12-29T05:19:57;12.20;99.90
59999;DHT22;45859;51.378;6.736;2022-12-29T05:22:22;12.20;99.90
59999;DHT22;45859;51.378;6.736;2022-12-29T05:24:48;12.30;99.90
59999;DHT22;45859;51.378;6.736;2022-12-29T05:27:14;12.40;99.90
59999;DHT22;45859;51.378;6.736;2022-12-29T05:29:40;12.40;99.90
59999;DHT22;45859;51.378;6.736;2022-12-29T05:32:05;12.40;99.90
59999;DHT22;45859;51.378;6.736;2022-12-29T05:34:31;12.40;99.90
59999;DHT22;45859;51.378;6.736;2022-12-29T05:36:57;12.40;99.90
59999;DHT22;45859;51.378;6.736;2022-12-29T05:39:22;12.30;99.90
59999;DHT22;45859;51.378;6.736;2022-12-29T05:41:48;12.10;99.90
59999;DHT22;45859;51.378;6.736;2022-12-29T05:44:14;12.00;99.90
59999;DHT22;45859;51.378;6.736;2022-12-29T05:46:40;11.80;99.90
59999;DHT22;45859;51.378;6.736;2022-12-29T05:49:05;11.80;99.90
59999;DHT22;45859;51.378;6.736;2022-12-29T05:51:31;11.70;99.90
59999;DHT22;45859;51.378;6.736;2022-12-29T05:53:57;11.80;99.90
59999;DHT22;45859;51.378;6.736;2022-12-29T05:56:23;11.50;99.90
59999;DHT22;45859;51.378;6.736;2022-12-29T05:58:48;11.50;99.90
59999;DHT22;45859;51.378;6.736;2022-12-29T06:01:14;11.40;99.90
59999;DHT22;45859;51.378;6.736;2022-12-29T06:03:40;11.40;99.90
59999;DHT22;45859;51.378;6.736;2022-12-29T06:06:05;11.60;99.90
59999;DHT22;45859;51.378;6.736;2022-12-29T06:08:31;11.30;99.90
59999;DHT22;45859;51.378;6.736;2022-12-29T06:10:56;11.50;99.90
59999;DHT22;45859;51.378;6.736;2022-12-29T06:13:22;11.30;99.90
59999;DHT22;45859;51.378;6.736;2022-12-29T06:15:49;11.20;99.90
59999;DHT22;45859;51.378;6.736;2022-12-29T06:18:15;11.10;99.90
59999;DHT22;45859;51.378;6.736;2022-12-29T06:20:40;11.10;99.90
59999;DHT22;45859;51.378;6.736;2022-12-29T06:23:06;11.10;99.90
59999;DHT22;45859;51.378;6.736;2022-12-29T06:25:32;11.50;99.90
59999;DHT22;45859;51.378;6.736;2022-12-29T06:27:59;11.30;99.90
59999;DHT22;45859;51.378;6.736;2022-12-29T06:30:25;11.40;99.90
59999;DHT22;45859;51.378;6.736;2022-12-29T06:32:53;11.60;99.90
59999;DHT22;45859;51.378;6.736;2022-12-29T06:35:20;11.60;99.90
59999;DHT22;45859;51.378;6.736;2022-12-29T06:37:47;11.70;99.90
59999;DHT22;45859;51.378;6.736;2022-12-29T06:40:13;12.00;99.90
59999;DHT22;45859;51.378;6.736;2022-12-29T06:42:41;11.80;99.90
59999;DHT22;45859;51.378;6.736;2022-12-29T06:45:07;11.90;99.90
59999;DHT22;45859;51.378;6.736;2022-12-29T06:47:33;11.90;99.90
59999;DHT22;45859;51.378;6.736;2022-12-29T06:49:59;12.00;99.90
59999;DHT22;45859;51.378;6.736;2022-12-29T06:52:25;11.90;99.90
59999;DHT22;45859;51.378;6.736;2022-12-29T06:54:50;11.80;99.90
59999;DHT22;45859;51.378;6.736;2022-12-29T06:57:16;11.90;99.90
59999;DHT22;45859;51.378;6.736;2022-12-29T06:59:42;11.80;99.90
59999;DHT22;45859;51.378;6.736;2022-12-29T07:02:10;11.80;99.90
59999;DHT22;45859;51.378;6.736;2022-12-29T07:04:35;11.90;99.90
59999;DHT22;45859;51.378;6.736;2022-12-29T07:07:01;11.80;99.90
59999;DHT22;45859;51.378;6.736;2022-12-29T07:09:27;11.80;99.90
59999;DHT22;45859;51.378;6.736;2022-12-29T07:11:52;11.80;99.90
59999;DHT22;45859;51.378;6.736;2022-12-29T07:14:18;11.90;99.90
59999;DHT22;45859;51.378;6.736;2022-12-29T07:16:44;11.90;99.90
59999;DHT22;45859;51.378;6.736;2022-12-29T07:19:10;11.90;99.90
59999;DHT22;45859;51.378;6.736;2022-12-29T07:21:35;11.80;99.90
59999;DHT22;45859;51.378;6.736;2022-12-29T07:24:01;11.80;99.90
59999;DHT22;45859;51.378;6.736;2022-12-29T07:26:27;12.10;99.90
59999;DHT22;45859;51.378;6.736;2022-12-29T07:28:52;11.80;99.90
59999;DHT22;45859;51.378;6.736;2022-12-29T07:31:21;11.80;99.90
59999;DHT22;45859;51.378;6.736;2022-12-29T07:33:48;11.80;99.90
59999;DHT22;45859;51.378;6.736;2022-12-29T07:36:15;11.80;99.90
59999;DHT22;45859;51.378;6.736;2022-12-29T07:38:41;11.80;99.90
59999;DHT22;45859;51.378;6.736;2022-12-29T07:41:07;11.80;99.90
59999;DHT22;45859;51.378;6.736;2022-12-29T07:43:39;11.80;99.90
59999;DHT22;45859;51.378;6.736;2022-12-29T07:46:04;11.80;99.90
59999;DHT22;45859;51.378;6.736;2022-12-29T07:48:30;11.80;99.90
59999;DHT22;45859;51.378;6.736;2022-12-29T07:50:56;11.80;99.90
59999;DHT22;45859;51.378;6.736;2022-12-29T07:53:21;11.80;99.90
59999;DHT22;45859;51.378;6.736;2022-12-29T07:55:47;11.70;99.90
59999;DHT22;45859;51.378;6.736;2022-12-29T07:58:13;11.70;99.90
59999;DHT22;45859;51.378;6.736;2022-12-29T08:00:38;11.70;99.90
59999;DHT22;45859;51.378;6.736;2022-12-29T08:03:04;12.00;99.90
59999;DHT22;45859;51.378;6.736;2022-12-29T08:05:31;11.90;99.90
59999;DHT22;45859;51.378;6.736;2022-12-29T08:07:57;11.70;99.90
59999;DHT22;45859;51.378;6.736;2022-12-29T08:10:23;12.40;99.90
59999;DHT22;45859;51.378;6.736;2022-12-29T08:12:48;11.70;99.90
59999;DHT22;45859;51.378;6.736;2022-12-29T08:15:14;11.60;99.90
59999;DHT22;45859;51.378;6.736;2022-12-29T08:17:40;11.50;99.90
59999;DHT22;45859;51.378;6.736;2022-12-29T08:20:06;11.50;99.90
59999;DHT22;45859;51.378;6.736;2022-12-29T08:22:32;11.50;99.90
59999;DHT22;45859;51.378;6.736;2022-12-29T08:24:57;11.50;99.90
59999;DHT22;45859;51.378;6.736;2022-12-29T08:27:23;11.60;99.90
59999;DHT22;45859;51.378;6.736;2022-12-29T08:29:48;11.60;99.90
59999;DHT22;45859;51.378;6.736;2022-12-29T08:32:15;11.90;99.90
59999;DHT22;45859;51.378;6.736;2022-12-29T08:34:40;12.10;99.90
59999;DHT22;45859;51.378;6.736;2022-12-29T08:37:06;11.70;99.90
59999;DHT22;45859;51.378;6.736;2022-12-29T08:39:32;11.60;99.90
59999;DHT22;45859;51.378;6.736;2022-12-29T08:41:57;11.60;99.90
59999;DHT22;45859;51.378;6.736;2022-12-29T08:44:23;11.50;99.90
59999;DHT22;45859;51.378;6.736;2022-12-29T08:46:48;11.40;99.90
59999;DHT22;45859;51.378;6.736;2022-12-29T08:49:14;11.30;99.90
59999;DHT22;45859;51.378;6.736;2022-12-29T08:51:40;11.30;99.90
59999;DHT22;45859;51.378;6.736;2022-12-29T08:54:05;11.30;99.90
59999;DHT22;45859;51.378;6.736;2022-12-29T08:56:31;11.50;99.90
59999;DHT22;45859;51.378;6.736;2022-12-29T08:58:57;11.20;99.90
59999;DHT22;45859;51.378;6.736;2022-12-29T09:01:23;11.20;99.90
59999;DHT22;45859;51.378;6.736;2022-12-29T09:03:49;11.10;99.90
59999;DHT22;45859;51.378;6.736;2022-12-29T09:06:16;11.20;99.90
59999;DHT22;45859;51.378;6.736;2022-12-29T09:08:42;11.20;99.90
59999;DHT22;45859;51.378;6.736;2022-12-29T09:13:37;11.30;99.90
59999;DHT22;45859;51.378;6.736;2022-12-29T09:16:03;12.20;99.90
59999;DHT22;45859;51.378;6.736;2022-12-29T09:18:30;11.60;99.90
59999;DHT22;45859;51.378;6.736;2022-12-29T09:21:00;11.60;99.90
59999;DHT22;45859;51.378;6.736;2022-12-29T09:23:26;11.70;99.90
59999;DHT22;45859;51.378;6.736;2022-12-29T09:25:53;11.70;99.90
59999;DHT22;45859;51.378;6.736;2022-12-29T09:28:19;11.60;99.90
59999;DHT22;45859;51.378;6.736;2022-12-29T09:30:45;11.60;99.90
59999;DHT22;45859;51.378;6.736;2022-12-29T09:33:11;11.50;99.90
59999;DHT22;45859;51.378;6.736;2022-12-29T09:35:37;11.50;99.90
59999;DHT22;45859;51.378;6.736;2022-12-29T09:38:06;11.60;99.90
59999;DHT22;45859;51.378;6.736;2022-12-29T09:40:33;11.60;99.90
59999;DHT22;45859;51.378;6.736;2022-12-29T09:45:52;11.60;99.90
59999;DHT22;45859;51.378;6.736;2022-12-29T09:48:25;11.60;99.90
59999;DHT22;45859;51.378;6.736;2022-12-29T09:50:56;11.60;99.90
59999;DHT22;45859;51.378;6.736;2022-12-29T09:55:58;11.60;99.90
59999;DHT22;45859;51.378;6.736;2022-12-29T09:58:36;11.60;99.90
59999;DHT22;45859;51.378;6.736;2022-12-29T10:01:05;11.60;99.90
59999;DHT22;45859;51.378;6.736;2022-12-29T10:03:52;11.60;99.90
59999;DHT22;45859;51.378;6.736;2022-12-29T10:24:41;11.70;99.90
59999;DHT22;45859;51.378;6.736;2022-12-29T10:27:12;11.70;99.90
59999;DHT22;45859;51.378;6.736;2022-12-29T10:29:59;11.80;99.90
59999;DHT22;45859;51.378;6.736;2022-12-29T10:35:00;11.90;99.90
59999;DHT22;45859;51.378;6.736;2022-12-29T10:43:35;11.90;99.90
59999;DHT22;45859;51.378;6.736;2022-12-29T10:46:05;11.90;99.90
59999;DHT22;45859;51.378;6.736;2022-12-29T10:48:34;11.90;99.90
59999;DHT22;45859;51.378;6.736;2022-12-29T10:51:04;11.90;99.90
59999;DHT22;45859;51.378;6.736;2022-12-29T10:53:45;11.90;99.90
59999;DHT22;45859;51.378;6.736;2022-12-29T10:56:35;11.90;99.90
59999;DHT22;45859;51.378;6.736;2022-12-29T10:59:32;11.90;99.90
59999;DHT22;45859;51.378;6.736;2022-12-29T11:05:06;11.90;99.90
59999;DHT22;45859;51.378;6.736;2022-12-29T11:07:36;11.90;99.90
59999;DHT22;45859;51.378;6.736;2022-12-29T11:10:29;11.90;99.90
59999;DHT22;45859;51.378;6.736;2022-12-29T11:13:01;11.90;99.90
59999;DHT22;45859;51.378;6.736;2022-12-29T11:15:45;11.90;99.90
59999;DHT22;45859;51.378;6.736;2022-12-29T11:18:19;11.90;99.90
59999;DHT22;45859;51.378;6.736;2022-12-29T11:20:46;11.90;99.90
59999;DHT22;45859;51.378;6.736;2022-12-29T11:23:41;11.90;99.90
59999;DHT22;45859;51.378;6.736;2022-12-29T11:28:37;11.90;99.90
59999;DHT22;45859;51.378;6.736;2022-12-29T11:31:04;12.00;99.90
59999;DHT22;45859;51.378;6.736;2022-12-29T11:33:35;12.00;99.90
59999;DHT22;45859;51.378;6.736;2022-12-29T11:36:22;12.00;99.90
59999;DHT22;45859;51.378;6.736;2022-12-29T11:38:52;12.10;99.90
59999;DHT22;45859;51.378;6.736;2022-12-29T11:41:29;12.20;99.90
59999;DHT22;45859;51.378;6.736;2022-12-29T11:43:58;12.10;99.90
59999;DHT22;45859;51.378;6.736;2022-12-29T11:46:33;12.20;99.90
59999;DHT22;45859;51.378;6.736;2022-12-29T11:49:00;12.10;99.90
59999;DHT22;45859;51.378;6.736;2022-12-29T11:51:37;12.10;99.90
59999;DHT22;45859;51.378;6.736;2022-12-29T11:54:05;12.10;99.90
59999;DHT22;45859;51.378;6.736;2022-12-29T11:56:40;12.00;99.90
59999;DHT22;45859;51.378;6.736;2022-12-29T12:02:02;12.10;99.90
59999;DHT22;45859;51.378;6.736;2022-12-29T12:04:32;12.10;99.90
59999;DHT22;45859;51.378;6.736;2022-12-29T12:07:19;12.20;99.90
59999;DHT22;45859;51.378;6.736;2022-12-29T12:09:46;12.20;99.90
59999;DHT22;45859;51.378;6.736;2022-12-29T12:12:34;12.20;99.90
59999;DHT22;45859;51.378;6.736;2022-12-29T12:15:02;12.10;99.90
59999;DHT22;45859;51.378;6.736;2022-12-29T12:20:23;12.10;99.90
59999;DHT22;45859;51.378;6.736;2022-12-29T12:23:06;12.10;99.90
59999;DHT22;45859;51.378;6.736;2022-12-29T12:25:39;12.20;99.90
59999;DHT22;45859;51.378;6.736;2022-12-29T12:30:49;12.00;99.90
59999;DHT22;45859;51.378;6.736;2022-12-29T12:33:42;12.00;99.90
59999;DHT22;45859;51.378;6.736;2022-12-29T12:36:22;12.00;99.90
59999;DHT22;45859;51.378;6.736;2022-12-29T12:46:58;11.90;99.90
59999;DHT22;45859;51.378;6.736;2022-12-29T13:03:44;11.90;99.90
59999;DHT22;45859;51.378;6.736;2022-12-29T13:09:25;11.90;99.90
59999;DHT22;45859;51.378;6.736;2022-12-29T13:18:02;11.80;99.90
59999;DHT22;45859;51.378;6.736;2022-12-29T13:26:24;11.80;99.90
59999;DHT22;45859;51.378;6.736;2022-12-29T13:36:40;11.70;99.90
59999;DHT22;45859;51.378;6.736;2022-12-29T13:39:11;11.70;99.90
59999;DHT22;45859;51.378;6.736;2022-12-29T13:41:56;11.70;99.90
59999;DHT22;45859;51.378;6.736;2022-12-29T13:44:26;11.70;99.90
59999;DHT22;45859;51.378;6.736;2022-12-29T13:46:53;11.60;99.90
59999;DHT22;45859;51.378;6.736;2022-12-29T13:49:21;11.60;99.90
59999;DHT22;45859;51.378;6.736;2022-12-29T13:51:50;11.60;99.90
59999;DHT22;45859;51.378;6.736;2022-12-29T13:54:20;11.60;99.90
59999;DHT22;45859;51.378;6.736;2022-12-29T13:57:51;11.50;99.90
59999;DHT22;45859;51.378;6.736;2022-12-29T13:59:59;11.50;99.90
59999;DHT22;45859;51.378;6.736;2022-12-29T14:05:05;11.50;99.90
59999;DHT22;45859;51.378;6.736;2022-12-29T14:08:00;11.50;99.90
59999;DHT22;45859;51.378;6.736;2022-12-29T14:10:36;11.50;99.90
59999;DHT22;45859;51.378;6.736;2022-12-29T14:13:14;11.40;99.90
59999;DHT22;45859;51.378;6.736;2022-12-29T14:15:51;11.40;99.90
59999;DHT22;45859;51.378;6.736;2022-12-29T14:18:22;11.40;99.90
59999;DHT22;45859;51.378;6.736;2022-12-29T14:21:00;11.40;99.90
59999;DHT22;45859;51.378;6.736;2022-12-29T14:23:44;11.40;99.90
59999;DHT22;45859;51.378;6.736;2022-12-29T14:26:37;11.50;99.90
59999;DHT22;45859;51.378;6.736;2022-12-29T14:31:46;11.50;99.90
59999;DHT22;45859;51.378;6.736;2022-12-29T14:36:52;11.50;99.90
59999;DHT22;45859;51.378;6.736;2022-12-29T14:39:40;11.50;99.90
59999;DHT22;45859;51.378;6.736;2022-12-29T14:44:52;11.30;99.90
59999;DHT22;45859;51.378;6.736;2022-12-29T14:50:21;11.30;99.90
59999;DHT22;45859;51.378;6.736;2022-12-29T14:52:59;11.30;99.90
59999;DHT22;45859;51.378;6.736;2022-12-29T14:55:46;11.30;99.90
59999;DHT22;45859;51.378;6.736;2022-12-29T15:00:48;11.20;99.90
59999;DHT22;45859;51.378;6.736;2022-12-29T15:03:23;11.20;99.90
59999;DHT22;45859;51.378;6.736;2022-12-29T15:05:56;11.20;99.90
59999;DHT22;45859;51.378;6.736;2022-12-29T15:08:26;11.20;99.90
59999;DHT22;45859;51.378;6.736;2022-12-29T15:10:58;11.20;99.90
59999;DHT22;45859;51.378;6.736;2022-12-29T15:13:34;11.10;99.90
59999;DHT22;45859;51.378;6.736;2022-12-29T15:16:00;11.10;99.90
59999;DHT22;45859;51.378;6.736;2022-12-29T15:18:29;11.10;99.90
59999;DHT22;45859;51.378;6.736;2022-12-29T15:20:57;11.10;99.90
59999;DHT22;45859;51.378;6.736;2022-12-29T15:23:24;11.10;99.90
59999;DHT22;45859;51.378;6.736;2022-12-29T15:26:02;11.10;99.90
59999;DHT22;45859;51.378;6.736;2022-12-29T15:28:41;11.10;99.90
59999;DHT22;45859;51.378;6.736;2022-12-29T15:31:13;11.00;99.90
59999;DHT22;45859;51.378;6.736;2022-12-29T15:33:42;11.10;99.90
59999;DHT22;45859;51.378;6.736;2022-12-29T15:36:29;11.10;99.90
59999;DHT22;45859;51.378;6.736;2022-12-29T15:39:18;11.00;99.90
59999;DHT22;45859;51.378;6.736;2022-12-29T15:41:53;11.00;99.90
59999;DHT22;45859;51.378;6.736;2022-12-29T15:47:06;11.00;99.90
59999;DHT22;45859;51.378;6.736;2022-12-29T15:49:32;10.90;99.90
59999;DHT22;45859;51.378;6.736;2022-12-29T15:51:58;10.90;99.90
59999;DHT22;45859;51.378;6.736;2022-12-29T15:54:27;10.90;99.90
59999;DHT22;45859;51.378;6.736;2022-12-29T15:56:55;10.80;99.90
59999;DHT22;45859;51.378;6.736;2022-12-29T15:59:31;10.80;99.90
59999;DHT22;45859;51.378;6.736;2022-12-29T16:01:59;10.80;99.90
59999;DHT22;45859;51.378;6.736;2022-12-29T16:04:28;10.70;99.90
59999;DHT22;45859;51.378;6.736;2022-12-29T16:07:05;10.60;99.90
59999;DHT22;45859;51.378;6.736;2022-12-29T16:12:05;10.50;99.90
59999;DHT22;45859;51.378;6.736;2022-12-29T16:17:00;10.30;99.90
59999;DHT22;45859;51.378;6.736;2022-12-29T16:19:33;10.30;99.90
59999;DHT22;45859;51.378;6.736;2022-12-29T16:22:01;10.20;99.90
59999;DHT22;45859;51.378;6.736;2022-12-29T16:24:31;10.20;99.90
59999;DHT22;45859;51.378;6.736;2022-12-29T16:27:09;10.20;99.90
59999;DHT22;45859;51.378;6.736;2022-12-29T16:29:39;10.20;99.90
59999;DHT22;45859;51.378;6.736;2022-12-29T16:32:25;10.20;99.90
59999;DHT22;45859;51.378;6.736;2022-12-29T16:35:11;10.20;99.90
59999;DHT22;45859;51.378;6.736;2022-12-29T16:37:37;10.20;99.90
59999;DHT22;45859;51.378;6.736;2022-12-29T16:40:33;10.20;99.90
59999;DHT22;45859;51.378;6.736;2022-12-29T16:43:03;10.20;99.90
59999;DHT22;45859;51.378;6.736;2022-12-29T16:50:42;10.20;99.90
59999;DHT22;45859;51.378;6.736;2022-12-29T16:53:25;10.30;99.90
59999;DHT22;45859;51.378;6.736;2022-12-29T16:55:53;10.30;99.90
59999;DHT22;45859;51.378;6.736;2022-12-29T16:58:27;10.40;99.90
59999;DHT22;45859;51.378;6.736;2022-12-29T17:00:57;10.40;99.90
59999;DHT22;45859;51.378;6.736;2022-12-29T17:03:54;10.50;99.90
59999;DHT22;45859;51.378;6.736;2022-12-29T17:06:21;10.50;99.90
59999;DHT22;45859;51.378;6.736;2022-12-29T17:08:49;10.40;99.90
59999;DHT22;45859;51.378;6.736;2022-12-29T17:11:30;10.00;99.90
59999;DHT22;45859;51.378;6.736;2022-12-29T17:14:46;9.70;99.90
59999;DHT22;45859;51.378;6.736;2022-12-29T17:19:57;9.10;99.90
59999;DHT22;45859;51.378;6.736;2022-12-29T17:22:27;8.90;99.90
59999;DHT22;45859;51.378;6.736;2022-12-29T17:24:54;8.80;99.90
59999;DHT22;45859;51.378;6.736;2022-12-29T17:30:03;8.50;99.90
59999;DHT22;45859;51.378;6.736;2022-12-29T17:32:29;8.50;99.90
59999;DHT22;45859;51.378;6.736;2022-12-29T17:34:55;8.50;99.90
59999;DHT22;45859;51.378;6.736;2022-12-29T17:37:28;8.50;99.90
59999;DHT22;45859;51.378;6.736;2022-12-29T17:39:55;8.50;99.90
59999;DHT22;45859;51.378;6.736;2022-12-29T17:42:20;8.40;99.90
59999;DHT22;45859;51.378;6.736;2022-12-29T17:44:46;8.40;99.90
59999;DHT22;45859;51.378;6.736;2022-12-29T17:47:15;8.30;99.90
59999;DHT22;45859;51.378;6.736;2022-12-29T17:49:41;8.20;99.90
59999;DHT22;45859;51.378;6.736;2022-12-29T17:52:16;8.20;99.90
59999;DHT22;45859;51.378;6.736;2022-12-29T17:54:52;8.10;99.90
59999;DHT22;45859;51.378;6.736;2022-12-29T17:57:20;8.10;99.90
59999;DHT22;45859;51.378;6.736;2022-12-29T17:59:55;8.00;99.90
59999;DHT22;45859;51.378;6.736;2022-12-29T18:02:29;8.00;99.90
59999;DHT22;45859;51.378;6.736;2022-12-29T18:04:57;7.90;99.90
59999;DHT22;45859;51.378;6.736;2022-12-29T18:07:27;7.80;99.90
59999;DHT22;45859;51.378;6.736;2022-12-29T18:09:54;7.80;99.90
59999;DHT22;45859;51.378;6.736;2022-12-29T18:12:33;7.70;99.90
59999;DHT22;45859;51.378;6.736;2022-12-29T18:15:00;7.60;99.90
59999;DHT22;45859;51.378;6.736;2022-12-29T18:17:26;7.60;99.90
59999;DHT22;45859;51.378;6.736;2022-12-29T18:19:52;7.60;99.90
59999;DHT22;45859;51.378;6.736;2022-12-29T18:22:21;7.50;99.90
59999;DHT22;45859;51.378;6.736;2022-12-29T18:24:47;7.50;99.90
59999;DHT22;45859;51.378;6.736;2022-12-29T18:27:14;7.50;99.90
59999;DHT22;45859;51.378;6.736;2022-12-29T18:29:41;7.50;99.90
59999;DHT22;45859;51.378;6.736;2022-12-29T18:32:11;7.50;99.90
59999;DHT22;45859;51.378;6.736;2022-12-29T18:34:38;7.50;99.90
59999;DHT22;45859;51.378;6.736;2022-12-29T18:37:04;7.60;99.90
59999;DHT22;45859;51.378;6.736;2022-12-29T18:39:30;7.60;99.90